createdAt,value
2022-10-05T00:00:21.649Z,9.77
2022-10-05T00:01:21.744Z,9.76
2022-10-05T00:02:21.723Z,9.76
2022-10-05T00:03:21.759Z,9.76
2022-10-05T00:04:21.789Z,9.69
2022-10-05T00:05:21.906Z,9.69
2022-10-05T00:06:21.863Z,9.69
2022-10-05T00:07:21.902Z,9.68
2022-10-05T00:08:21.948Z,9.67
2022-10-05T00:09:21.979Z,9.67
2022-10-05T00:10:22.010Z,9.67
2022-10-05T00:11:22.043Z,9.67
2022-10-05T00:12:22.077Z,9.61
2022-10-05T00:13:22.114Z,9.62
2022-10-05T00:14:22.139Z,9.63
2022-10-05T00:15:22.175Z,9.63
2022-10-05T00:16:22.270Z,9.62
2022-10-05T00:17:22.247Z,9.62
2022-10-05T00:18:22.278Z,9.62
2022-10-05T00:19:22.307Z,9.62
2022-10-05T00:20:22.328Z,9.6
2022-10-05T00:21:22.375Z,9.6
2022-10-05T00:22:22.401Z,9.58
2022-10-05T00:23:22.445Z,9.58
2022-10-05T00:24:22.480Z,9.53
2022-10-05T00:25:22.510Z,9.54
2022-10-05T00:26:22.544Z,9.56
2022-10-05T00:27:22.568Z,9.57
2022-10-05T00:28:22.729Z,9.57
2022-10-05T00:29:22.633Z,9.58
2022-10-05T00:30:22.663Z,9.6
2022-10-05T00:31:22.810Z,9.59
2022-10-05T00:32:22.737Z,9.6
2022-10-05T00:33:22.775Z,9.61
2022-10-05T00:34:22.801Z,9.61
2022-10-05T00:35:22.840Z,9.6
2022-10-05T00:36:22.878Z,9.6
2022-10-05T00:37:22.908Z,9.6
2022-10-05T00:38:22.956Z,9.6
2022-10-05T00:39:22.983Z,9.6
2022-10-05T00:40:23.014Z,9.59
2022-10-05T00:41:23.045Z,9.59
2022-10-05T00:42:23.078Z,9.6
2022-10-05T00:43:23.112Z,9.59
2022-10-05T00:44:23.147Z,9.59
2022-10-05T00:45:23.179Z,9.6
2022-10-05T00:46:23.252Z,9.6
2022-10-05T00:47:23.238Z,9.6
2022-10-05T00:48:23.268Z,9.61
2022-10-05T00:49:23.303Z,9.61
2022-10-05T00:50:23.338Z,9.61
2022-10-05T00:51:23.374Z,9.62
2022-10-05T00:52:23.408Z,9.62
2022-10-05T00:53:23.444Z,9.62
2022-10-05T00:54:23.475Z,9.63
2022-10-05T00:55:23.510Z,9.64
2022-10-05T00:56:23.544Z,9.63
2022-10-05T00:57:23.578Z,9.63
2022-10-05T00:58:23.605Z,9.71
2022-10-05T00:59:23.635Z,9.7
2022-10-05T01:00:23.677Z,9.71
2022-10-05T01:01:23.837Z,9.71
2022-10-05T01:02:23.809Z,9.71
2022-10-05T01:03:23.771Z,9.71
2022-10-05T01:04:23.802Z,9.77
2022-10-05T01:05:23.842Z,9.77
2022-10-05T01:06:23.878Z,9.77
2022-10-05T01:07:23.904Z,9.77
2022-10-05T01:08:23.941Z,9.77
2022-10-05T01:09:23.972Z,9.76
2022-10-05T01:10:24.008Z,9.76
2022-10-05T01:11:24.047Z,9.75
2022-10-05T01:12:24.080Z,9.75
2022-10-05T01:13:24.119Z,9.82
2022-10-05T01:14:24.155Z,9.82
2022-10-05T01:15:24.182Z,9.81
2022-10-05T01:16:24.272Z,9.81
2022-10-05T01:17:24.249Z,9.8
2022-10-05T01:18:24.273Z,9.8
2022-10-05T01:19:24.325Z,9.8
2022-10-05T01:20:24.334Z,9.8
2022-10-05T01:21:24.375Z,9.79
2022-10-05T01:22:24.406Z,9.79
2022-10-05T01:23:24.434Z,9.79
2022-10-05T01:24:24.471Z,9.79
2022-10-05T01:25:24.496Z,9.78
2022-10-05T01:26:24.531Z,9.77
2022-10-05T01:27:24.574Z,9.77
2022-10-05T01:28:24.650Z,9.77
2022-10-05T01:29:24.636Z,9.77
2022-10-05T01:30:24.668Z,9.77
2022-10-05T01:31:24.763Z,9.77
2022-10-05T01:32:24.741Z,9.77
2022-10-05T01:33:24.775Z,9.76
2022-10-05T01:34:24.810Z,9.77
2022-10-05T01:35:24.848Z,9.77
2022-10-05T01:36:24.880Z,9.7
2022-10-05T01:37:24.913Z,9.71
2022-10-05T01:38:24.953Z,9.71
2022-10-05T01:39:24.997Z,9.71
2022-10-05T01:40:25.035Z,9.72
2022-10-05T01:41:25.071Z,9.71
2022-10-05T01:42:25.106Z,9.71
2022-10-05T01:43:25.140Z,9.65
2022-10-05T01:44:25.182Z,9.65
2022-10-05T01:45:25.216Z,9.65
2022-10-05T01:46:25.245Z,9.66
2022-10-05T01:47:25.276Z,9.66
2022-10-05T01:48:25.308Z,9.66
2022-10-05T01:49:25.349Z,9.66
2022-10-05T01:50:25.385Z,9.67
2022-10-05T01:51:25.417Z,9.6
2022-10-05T01:52:25.448Z,9.59
2022-10-05T01:53:25.483Z,9.59
2022-10-05T01:54:25.516Z,9.59
2022-10-05T01:55:25.551Z,9.59
2022-10-05T01:56:25.578Z,9.6
2022-10-05T01:57:25.605Z,9.59
2022-10-05T01:58:25.645Z,9.59
2022-10-05T01:59:25.681Z,9.6
2022-10-05T02:00:25.717Z,9.6
2022-10-05T02:01:25.775Z,9.54
2022-10-05T02:02:25.848Z,9.54
2022-10-05T02:03:25.822Z,9.54
2022-10-05T02:04:59.750Z,9.54
2022-10-05T02:05:25.881Z,9.54
2022-10-05T02:06:25.920Z,9.54
2022-10-05T02:07:25.955Z,9.54
2022-10-05T02:08:25.988Z,9.55
2022-10-05T02:09:26.018Z,9.55
2022-10-05T02:10:26.045Z,9.55
2022-10-05T02:11:26.084Z,9.48
2022-10-05T02:12:26.118Z,9.49
2022-10-05T02:13:26.156Z,9.48
2022-10-05T02:14:26.181Z,9.48
2022-10-05T02:15:26.223Z,9.47
2022-10-05T02:16:26.280Z,9.46
2022-10-05T02:17:26.298Z,9.46
2022-10-05T02:18:26.338Z,9.46
2022-10-05T02:19:26.368Z,9.39
2022-10-05T02:20:26.407Z,9.39
2022-10-05T02:21:26.436Z,9.38
2022-10-05T02:22:26.464Z,9.38
2022-10-05T02:23:26.502Z,9.31
2022-10-05T02:24:26.536Z,9.31
2022-10-05T02:25:26.571Z,9.31
2022-10-05T02:26:26.611Z,9.31
2022-10-05T02:27:26.636Z,9.31
2022-10-05T02:28:26.732Z,9.31
2022-10-05T02:29:26.712Z,9.25
2022-10-05T02:30:26.747Z,9.24
2022-10-05T02:31:26.853Z,9.24
2022-10-05T02:32:26.813Z,9.24
2022-10-05T02:33:26.841Z,9.21
2022-10-05T02:34:26.866Z,9.21
2022-10-05T02:35:26.903Z,9.21
2022-10-05T02:36:26.943Z,9.14
2022-10-05T02:37:26.973Z,9.13
2022-10-05T02:38:27.000Z,9.12
2022-10-05T02:39:27.036Z,9.12
2022-10-05T02:40:27.085Z,9.14
2022-10-05T02:41:27.097Z,9.06
2022-10-05T02:42:27.146Z,9.06
2022-10-05T02:43:27.181Z,9.05
2022-10-05T02:44:27.201Z,9.05
2022-10-05T02:45:27.234Z,9.05
2022-10-05T02:46:27.379Z,9.07
2022-10-05T02:47:27.280Z,9.01
2022-10-05T02:48:27.320Z,9.01
2022-10-05T02:49:27.346Z,9
2022-10-05T02:50:27.387Z,8.99
2022-10-05T02:51:27.420Z,8.98
2022-10-05T02:52:27.452Z,8.97
2022-10-05T02:53:27.489Z,8.99
2022-10-05T02:54:27.516Z,9
2022-10-05T02:55:27.556Z,9.01
2022-10-05T02:56:27.591Z,9.01
2022-10-05T02:57:27.626Z,9.03
2022-10-05T02:58:27.668Z,8.98
2022-10-05T02:59:27.689Z,9
2022-10-05T03:00:27.721Z,9.07
2022-10-05T03:01:27.863Z,9.09
2022-10-05T03:02:27.885Z,9.09
2022-10-05T03:03:27.825Z,9.1
2022-10-05T03:04:27.860Z,9.09
2022-10-05T03:05:27.898Z,9.17
2022-10-05T03:06:27.930Z,9.17
2022-10-05T03:07:27.961Z,9.17
2022-10-05T03:08:28.001Z,9.17
2022-10-05T03:09:28.033Z,9.25
2022-10-05T03:10:28.062Z,9.25
2022-10-05T03:11:28.096Z,9.26
2022-10-05T03:12:28.128Z,9.26
2022-10-05T03:13:28.165Z,9.32
2022-10-05T03:14:28.206Z,9.32
2022-10-05T03:15:28.230Z,9.32
2022-10-05T03:16:28.358Z,9.32
2022-10-05T03:17:28.303Z,9.38
2022-10-05T03:18:30.777Z,9.37
2022-10-05T03:19:28.359Z,9.37
2022-10-05T03:20:28.395Z,9.36
2022-10-05T03:21:28.419Z,9.43
2022-10-05T03:22:28.451Z,9.42
2022-10-05T03:23:28.487Z,9.43
2022-10-05T03:24:28.523Z,9.43
2022-10-05T03:25:28.556Z,9.43
2022-10-05T03:26:28.587Z,9.43
2022-10-05T03:27:28.633Z,9.49
2022-10-05T03:28:28.720Z,9.49
2022-10-05T03:29:28.698Z,9.49
2022-10-05T03:30:28.747Z,9.48
2022-10-05T03:31:28.822Z,9.48
2022-10-05T03:32:28.792Z,9.48
2022-10-05T03:33:28.825Z,9.54
2022-10-05T03:34:28.858Z,9.55
2022-10-05T03:35:28.895Z,9.54
2022-10-05T03:36:28.929Z,9.54
2022-10-05T03:37:28.972Z,9.6
2022-10-05T03:38:28.997Z,9.6
2022-10-05T03:39:29.030Z,9.6
2022-10-05T03:40:29.060Z,9.6
2022-10-05T03:41:29.094Z,9.59
2022-10-05T03:42:29.115Z,9.59
2022-10-05T03:43:29.156Z,9.66
2022-10-05T03:44:29.192Z,9.66
2022-10-05T03:45:29.220Z,9.66
2022-10-05T03:46:29.274Z,9.66
2022-10-05T03:47:29.293Z,9.66
2022-10-05T03:48:29.334Z,9.65
2022-10-05T03:49:29.359Z,9.65
2022-10-05T03:50:29.397Z,9.71
2022-10-05T03:51:29.433Z,9.71
2022-10-05T03:52:29.470Z,9.7
2022-10-05T03:53:29.506Z,9.7
2022-10-05T03:54:29.533Z,9.7
2022-10-05T03:55:29.570Z,9.7
2022-10-05T03:56:29.603Z,9.7
2022-10-05T03:57:29.639Z,9.76
2022-10-05T03:58:29.673Z,9.75
2022-10-05T03:59:32.573Z,9.75
2022-10-05T04:00:29.745Z,9.75
2022-10-05T04:01:29.810Z,9.74
2022-10-05T04:02:29.893Z,9.74
2022-10-05T04:03:29.857Z,9.74
2022-10-05T04:04:29.888Z,9.8
2022-10-05T04:05:29.918Z,9.81
2022-10-05T04:06:29.954Z,9.81
2022-10-05T04:07:29.988Z,9.8
2022-10-05T04:08:30.021Z,9.81
2022-10-05T04:09:30.048Z,9.81
2022-10-05T04:10:30.083Z,9.8
2022-10-05T04:11:30.123Z,9.8
2022-10-05T04:12:30.156Z,9.8
2022-10-05T04:13:30.184Z,9.79
2022-10-05T04:14:30.222Z,9.79
2022-10-05T04:15:30.253Z,9.8
2022-10-05T04:16:30.284Z,9.79
2022-10-05T04:17:30.323Z,9.79
2022-10-05T04:18:30.359Z,9.8
2022-10-05T04:19:30.397Z,9.8
2022-10-05T04:20:30.431Z,9.8
2022-10-05T04:21:30.463Z,9.8
2022-10-05T04:22:30.503Z,9.8
2022-10-05T04:23:30.536Z,9.8
2022-10-05T04:24:30.578Z,9.8
2022-10-05T04:25:30.617Z,9.81
2022-10-05T04:26:30.648Z,9.81
2022-10-05T04:27:30.686Z,9.81
2022-10-05T04:28:32.422Z,9.81
2022-10-05T04:29:30.750Z,9.81
2022-10-05T04:30:30.782Z,9.81
2022-10-05T04:31:30.851Z,9.81
2022-10-05T04:32:30.847Z,9.81
2022-10-05T04:33:30.885Z,9.81
2022-10-05T04:34:30.920Z,9.8
2022-10-05T04:35:30.957Z,9.8
2022-10-05T04:36:30.988Z,9.8
2022-10-05T04:37:31.027Z,9.79
2022-10-05T04:38:31.065Z,9.85
2022-10-05T04:39:31.092Z,9.86
2022-10-05T04:40:31.129Z,9.78
2022-10-05T04:41:31.162Z,9.84
2022-10-05T04:42:31.193Z,9.84
2022-10-05T04:43:31.233Z,9.83
2022-10-05T04:44:31.267Z,9.82
2022-10-05T04:45:31.313Z,9.82
2022-10-05T04:46:31.380Z,9.82
2022-10-05T04:47:31.370Z,9.82
2022-10-05T04:48:31.407Z,9.75
2022-10-05T04:49:31.449Z,9.82
2022-10-05T04:50:31.483Z,9.75
2022-10-05T04:51:31.518Z,9.75
2022-10-05T04:52:31.547Z,9.76
2022-10-05T04:53:31.588Z,9.75
2022-10-05T04:54:31.623Z,9.75
2022-10-05T04:55:31.663Z,9.76
2022-10-05T04:56:31.697Z,9.75
2022-10-05T04:57:31.728Z,9.75
2022-10-05T04:58:31.757Z,9.75
2022-10-05T04:59:31.789Z,9.75
2022-10-05T05:00:31.856Z,9.75
2022-10-05T05:01:31.864Z,9.82
2022-10-05T05:02:31.893Z,9.82
2022-10-05T05:03:32.031Z,9.81
2022-10-05T05:04:31.955Z,9.8
2022-10-05T05:05:31.991Z,9.8
2022-10-05T05:06:32.026Z,9.8
2022-10-05T05:07:32.054Z,9.8
2022-10-05T05:08:32.091Z,9.8
2022-10-05T05:09:32.131Z,9.8
2022-10-05T05:10:32.166Z,9.8
2022-10-05T05:11:32.206Z,9.86
2022-10-05T05:12:32.248Z,9.85
2022-10-05T05:13:32.277Z,9.85
2022-10-05T05:14:32.327Z,9.85
2022-10-05T05:15:32.353Z,9.85
2022-10-05T05:16:32.451Z,9.85
2022-10-05T05:17:32.435Z,9.85
2022-10-05T05:18:32.469Z,9.84
2022-10-05T05:19:32.511Z,9.84
2022-10-05T05:20:32.546Z,9.83
2022-10-05T05:21:32.585Z,9.84
2022-10-05T05:22:32.616Z,9.83
2022-10-05T05:23:32.646Z,9.83
2022-10-05T05:24:32.678Z,9.84
2022-10-05T05:25:32.712Z,9.84
2022-10-05T05:26:38.155Z,9.83
2022-10-05T05:27:32.781Z,9.83
2022-10-05T05:28:32.926Z,9.83
2022-10-05T05:29:32.851Z,9.82
2022-10-05T05:30:32.893Z,9.83
2022-10-05T05:31:32.987Z,9.83
2022-10-05T05:32:32.954Z,9.83
2022-10-05T05:33:32.981Z,9.82
2022-10-05T05:34:33.008Z,9.82
2022-10-05T05:35:33.044Z,9.82
2022-10-05T05:36:33.073Z,9.82
2022-10-05T05:37:33.104Z,9.81
2022-10-05T05:38:33.142Z,9.88
2022-10-05T05:39:33.182Z,9.88
2022-10-05T05:40:33.213Z,9.87
2022-10-05T05:41:33.235Z,9.87
2022-10-05T05:42:33.278Z,9.87
2022-10-05T05:43:33.306Z,9.87
2022-10-05T05:44:38.447Z,9.86
2022-10-05T05:45:33.380Z,9.93
2022-10-05T05:46:58.425Z,9.93
2022-10-05T05:47:33.477Z,9.92
2022-10-05T05:48:33.486Z,9.91
2022-10-05T05:49:33.525Z,9.98
2022-10-05T05:50:33.551Z,9.98
2022-10-05T05:51:33.584Z,9.97
2022-10-05T05:52:33.618Z,9.97
2022-10-05T05:53:33.658Z,9.98
2022-10-05T05:54:33.687Z,9.98
2022-10-05T05:55:33.714Z,9.97
2022-10-05T05:56:33.757Z,9.97
2022-10-05T05:57:33.787Z,9.97
2022-10-05T05:58:33.849Z,9.97
2022-10-05T05:59:33.864Z,10.04
2022-10-05T06:00:33.976Z,10.04
2022-10-05T06:01:34.300Z,10.04
2022-10-05T06:02:34.096Z,10.04
2022-10-05T06:03:33.996Z,10.03
2022-10-05T06:04:34.038Z,10.03
2022-10-05T06:05:34.077Z,10.04
2022-10-05T06:06:34.107Z,10.03
2022-10-05T06:07:34.142Z,10.09
2022-10-05T06:08:34.176Z,10.09
2022-10-05T06:09:34.212Z,10.09
2022-10-05T06:10:34.255Z,10.09
2022-10-05T06:11:34.286Z,10.1
2022-10-05T06:12:34.321Z,10.16
2022-10-05T06:13:34.352Z,10.16
2022-10-05T06:14:34.386Z,10.21
2022-10-05T06:15:34.420Z,10.21
2022-10-05T06:16:34.520Z,10.2
2022-10-05T06:17:34.484Z,10.26
2022-10-05T06:18:34.516Z,10.26
2022-10-05T06:19:34.545Z,10.26
2022-10-05T06:20:34.579Z,10.32
2022-10-05T06:21:34.600Z,10.32
2022-10-05T06:22:34.637Z,10.31
2022-10-05T06:23:34.673Z,10.38
2022-10-05T06:24:34.713Z,10.37
2022-10-05T06:25:34.755Z,10.37
2022-10-05T06:26:34.792Z,10.43
2022-10-05T06:27:34.841Z,10.42
2022-10-05T06:28:34.946Z,10.42
2022-10-05T06:29:34.891Z,10.48
2022-10-05T06:30:34.923Z,10.53
2022-10-05T06:31:35.027Z,10.53
2022-10-05T06:32:34.992Z,10.59
2022-10-05T06:33:35.019Z,10.58
2022-10-05T06:34:35.051Z,10.63
2022-10-05T06:35:35.087Z,10.67
2022-10-05T06:36:35.123Z,10.66
2022-10-05T06:37:35.163Z,10.66
2022-10-05T06:38:35.186Z,10.71
2022-10-05T06:39:35.216Z,10.69
2022-10-05T06:40:35.252Z,10.74
2022-10-05T06:41:35.284Z,10.73
2022-10-05T06:42:35.319Z,10.73
2022-10-05T06:43:35.347Z,10.72
2022-10-05T06:44:35.372Z,10.71
2022-10-05T06:45:35.436Z,10.77
2022-10-05T06:46:35.434Z,10.77
2022-10-05T06:47:35.462Z,10.83
2022-10-05T06:48:35.486Z,10.88
2022-10-05T06:49:35.519Z,10.87
2022-10-05T06:50:35.560Z,10.93
2022-10-05T06:51:35.598Z,10.93
2022-10-05T06:52:35.631Z,10.93
2022-10-05T06:53:35.687Z,10.99
2022-10-05T06:54:35.691Z,10.98
2022-10-05T06:55:35.720Z,10.97
2022-10-05T06:56:35.750Z,10.96
2022-10-05T06:57:35.783Z,10.93
2022-10-05T06:58:35.815Z,10.93
2022-10-05T06:59:35.847Z,10.94
2022-10-05T07:00:35.878Z,10.94
2022-10-05T07:01:36.004Z,10.94
2022-10-05T07:02:35.980Z,11.02
2022-10-05T07:03:35.987Z,11.01
2022-10-05T07:04:36.886Z,11.02
2022-10-05T07:05:36.051Z,11.02
2022-10-05T07:06:36.076Z,11.02
2022-10-05T07:07:36.117Z,11.01
2022-10-05T07:08:36.154Z,11.08
2022-10-05T07:09:36.195Z,11.08
2022-10-05T07:10:36.221Z,11.08
2022-10-05T07:11:36.261Z,11.14
2022-10-05T07:12:36.289Z,11.14
2022-10-05T07:13:36.324Z,11.13
2022-10-05T07:14:36.352Z,11.2
2022-10-05T07:15:36.385Z,11.19
2022-10-05T07:16:36.597Z,11.2
2022-10-05T07:17:36.461Z,11.27
2022-10-05T07:18:36.484Z,11.27
2022-10-05T07:19:36.520Z,11.24
2022-10-05T07:20:36.564Z,11.31
2022-10-05T07:21:36.596Z,11.31
2022-10-05T07:22:36.630Z,11.35
2022-10-05T07:23:36.671Z,11.33
2022-10-05T07:24:36.706Z,11.38
2022-10-05T07:25:36.741Z,11.38
2022-10-05T07:26:36.775Z,11.43
2022-10-05T07:27:36.806Z,11.44
2022-10-05T07:28:36.907Z,11.51
2022-10-05T07:29:36.875Z,11.5
2022-10-05T07:30:36.967Z,11.57
2022-10-05T07:31:36.946Z,11.63
2022-10-05T07:32:36.989Z,11.69
2022-10-05T07:33:37.046Z,11.67
2022-10-05T07:34:37.074Z,11.72
2022-10-05T07:35:37.092Z,11.77
2022-10-05T07:36:37.123Z,11.81
2022-10-05T07:37:37.151Z,11.85
2022-10-05T07:38:37.181Z,11.84
2022-10-05T07:39:58.975Z,11.89
2022-10-05T07:40:37.242Z,11.87
2022-10-05T07:41:37.275Z,11.92
2022-10-05T07:42:44.566Z,11.9
2022-10-05T07:43:57.928Z,11.89
2022-10-05T07:44:37.377Z,11.9
2022-10-05T07:45:37.494Z,11.88
2022-10-05T07:46:37.454Z,11.95
2022-10-05T07:47:37.489Z,11.96
2022-10-05T07:48:37.522Z,11.99
2022-10-05T07:49:37.560Z,11.97
2022-10-05T07:50:37.598Z,12.03
2022-10-05T07:51:37.625Z,12.01
2022-10-05T07:52:37.652Z,12.09
2022-10-05T07:53:37.679Z,12.07
2022-10-05T07:54:37.720Z,12.1
2022-10-05T07:55:37.753Z,12.05
2022-10-05T07:56:37.779Z,12.09
2022-10-05T07:57:37.814Z,12.11
2022-10-05T07:58:37.845Z,12.15
2022-10-05T07:59:37.878Z,12.16
2022-10-05T08:00:37.909Z,12.17
2022-10-05T08:01:37.992Z,12.23
2022-10-05T08:02:38.042Z,12.23
2022-10-05T08:03:38.014Z,12.25
2022-10-05T08:04:41.527Z,12.35
2022-10-05T08:05:38.076Z,12.43
2022-10-05T08:06:38.101Z,12.36
2022-10-05T08:07:38.132Z,12.34
2022-10-05T08:08:38.160Z,12.42
2022-10-05T08:09:38.204Z,12.37
2022-10-05T08:10:38.240Z,12.41
2022-10-05T08:11:38.277Z,12.36
2022-10-05T08:12:38.322Z,12.41
2022-10-05T08:13:38.349Z,12.4
2022-10-05T08:14:38.372Z,12.46
2022-10-05T08:15:38.430Z,12.52
2022-10-05T08:16:38.448Z,12.52
2022-10-05T08:17:38.458Z,12.59
2022-10-05T08:18:38.490Z,12.57
2022-10-05T08:19:38.517Z,12.57
2022-10-05T08:20:38.555Z,12.56
2022-10-05T08:21:38.586Z,12.55
2022-10-05T08:22:38.616Z,12.61
2022-10-05T08:23:38.705Z,12.66
2022-10-05T08:24:38.681Z,12.68
2022-10-05T08:25:38.712Z,12.69
2022-10-05T08:26:38.748Z,12.72
2022-10-05T08:27:38.779Z,12.7
2022-10-05T08:28:38.917Z,12.72
2022-10-05T08:29:38.845Z,12.8
2022-10-05T08:30:38.866Z,12.77
2022-10-05T08:31:38.973Z,12.82
2022-10-05T08:32:38.938Z,12.83
2022-10-05T08:33:38.979Z,12.81
2022-10-05T08:34:39.007Z,12.8
2022-10-05T08:35:39.045Z,12.77
2022-10-05T08:36:39.074Z,12.78
2022-10-05T08:37:39.107Z,12.78
2022-10-05T08:38:39.139Z,12.82
2022-10-05T08:39:39.170Z,12.86
2022-10-05T08:40:39.207Z,12.84
2022-10-05T08:41:39.251Z,12.85
2022-10-05T08:42:39.269Z,12.91
2022-10-05T08:43:39.289Z,12.91
2022-10-05T08:44:39.318Z,12.88
2022-10-05T08:45:39.381Z,12.99
2022-10-05T08:46:39.421Z,12.96
2022-10-05T08:47:39.434Z,13
2022-10-05T08:48:39.457Z,12.99
2022-10-05T08:49:39.482Z,13.05
2022-10-05T08:50:39.519Z,13.07
2022-10-05T08:51:39.561Z,13.07
2022-10-05T08:52:39.589Z,13.05
2022-10-05T08:53:39.625Z,13.15
2022-10-05T08:54:39.657Z,13.13
2022-10-05T08:55:39.703Z,13.07
2022-10-05T08:56:39.728Z,13.12
2022-10-05T08:57:39.761Z,13.13
2022-10-05T08:58:39.789Z,13.17
2022-10-05T08:59:39.831Z,13.17
2022-10-05T09:00:39.849Z,13.2
2022-10-05T09:01:39.940Z,13.27
2022-10-05T09:02:39.963Z,13.28
2022-10-05T09:03:39.946Z,13.26
2022-10-05T09:04:39.975Z,13.3
2022-10-05T09:05:40.023Z,13.32
2022-10-05T09:06:40.047Z,13.29
2022-10-05T09:07:40.079Z,13.34
2022-10-05T09:08:40.114Z,13.36
2022-10-05T09:09:40.143Z,13.3
2022-10-05T09:10:40.178Z,13.28
2022-10-05T09:11:40.209Z,13.41
2022-10-05T09:12:40.255Z,13.43
2022-10-05T09:13:40.287Z,13.4
2022-10-05T09:14:40.318Z,13.36
2022-10-05T09:15:40.467Z,13.45
2022-10-05T09:16:40.396Z,13.42
2022-10-05T09:17:40.434Z,13.41
2022-10-05T09:18:40.468Z,13.42
2022-10-05T09:19:40.508Z,13.45
2022-10-05T09:20:40.539Z,13.47
2022-10-05T09:21:40.578Z,13.42
2022-10-05T09:22:40.616Z,13.43
2022-10-05T09:23:40.642Z,13.5
2022-10-05T09:24:42.865Z,13.58
2022-10-05T09:25:40.696Z,13.5
2022-10-05T09:26:40.723Z,13.48
2022-10-05T09:27:40.759Z,13.48
2022-10-05T09:28:40.864Z,13.58
2022-10-05T09:29:40.817Z,13.59
2022-10-05T09:30:40.926Z,13.56
2022-10-05T09:31:40.880Z,13.57
2022-10-05T09:32:40.915Z,13.57
2022-10-05T09:33:40.950Z,13.57
2022-10-05T09:34:40.981Z,13.62
2022-10-05T09:35:41.016Z,13.58
2022-10-05T09:36:41.041Z,13.53
2022-10-05T09:37:41.081Z,13.59
2022-10-05T09:38:41.105Z,13.63
2022-10-05T09:39:41.136Z,13.69
2022-10-05T09:40:41.166Z,13.67
2022-10-05T09:41:41.202Z,13.73
2022-10-05T09:42:41.242Z,13.82
2022-10-05T09:43:41.278Z,13.91
2022-10-05T09:44:41.307Z,13.89
2022-10-05T09:45:41.346Z,13.87
2022-10-05T09:46:41.449Z,13.9
2022-10-05T09:47:41.431Z,13.87
2022-10-05T09:48:41.460Z,13.85
2022-10-05T09:49:41.498Z,13.85
2022-10-05T09:50:41.541Z,13.85
2022-10-05T09:51:41.568Z,13.83
2022-10-05T09:52:41.595Z,13.78
2022-10-05T09:53:41.620Z,13.77
2022-10-05T09:54:41.661Z,13.81
2022-10-05T09:55:41.693Z,13.83
2022-10-05T09:56:41.729Z,13.69
2022-10-05T09:57:41.756Z,13.7
2022-10-05T09:58:41.793Z,13.76
2022-10-05T09:59:41.831Z,13.75
2022-10-05T10:00:45.861Z,13.7
2022-10-05T10:01:41.946Z,13.75
2022-10-05T10:02:42.167Z,13.81
2022-10-05T10:03:41.954Z,13.82
2022-10-05T10:04:41.973Z,13.83
2022-10-05T10:05:42.004Z,13.9
2022-10-05T10:06:42.045Z,13.96
2022-10-05T10:07:42.074Z,13.96
2022-10-05T10:08:42.105Z,13.93
2022-10-05T10:09:42.150Z,13.88
2022-10-05T10:10:42.167Z,13.87
2022-10-05T10:11:42.199Z,13.92
2022-10-05T10:12:42.228Z,13.94
2022-10-05T10:13:42.270Z,13.95
2022-10-05T10:14:42.308Z,13.86
2022-10-05T10:15:42.397Z,13.81
2022-10-05T10:16:42.381Z,13.82
2022-10-05T10:17:42.417Z,13.92
2022-10-05T10:18:42.452Z,13.94
2022-10-05T10:19:42.491Z,13.94
2022-10-05T10:20:42.529Z,13.98
2022-10-05T10:21:42.568Z,14.04
2022-10-05T10:22:43.323Z,14.02
2022-10-05T10:23:42.626Z,13.98
2022-10-05T10:24:42.704Z,13.98
2022-10-05T10:25:42.708Z,13.93
2022-10-05T10:26:42.747Z,13.98
2022-10-05T10:27:42.783Z,14.11
2022-10-05T10:28:42.812Z,14.1
2022-10-05T10:29:42.848Z,13.97
2022-10-05T10:30:42.957Z,14.01
2022-10-05T10:31:42.918Z,14.13
2022-10-05T10:32:42.957Z,14.12
2022-10-05T10:33:42.989Z,14.12
2022-10-05T10:34:43.016Z,14.1
2022-10-05T10:35:43.058Z,14.09
2022-10-05T10:36:43.091Z,14.11
2022-10-05T10:37:43.124Z,14.07
2022-10-05T10:38:43.152Z,14.06
2022-10-05T10:39:43.185Z,14.09
2022-10-05T10:40:43.216Z,14.09
2022-10-05T10:41:43.253Z,14.09
2022-10-05T10:42:43.283Z,14.12
2022-10-05T10:43:43.313Z,14.25
2022-10-05T10:44:43.350Z,14.19
2022-10-05T10:45:43.383Z,14.12
2022-10-05T10:46:43.464Z,14.1
2022-10-05T10:47:43.451Z,14.15
2022-10-05T10:48:43.482Z,14.21
2022-10-05T10:49:43.625Z,14.26
2022-10-05T10:50:43.544Z,14.32
2022-10-05T10:51:43.582Z,14.4
2022-10-05T10:52:43.618Z,14.5
2022-10-05T10:53:43.660Z,14.37
2022-10-05T10:54:43.687Z,14.41
2022-10-05T10:55:43.716Z,14.36
2022-10-05T10:56:43.748Z,14.26
2022-10-05T10:57:43.780Z,14.25
2022-10-05T10:58:43.819Z,14.27
2022-10-05T10:59:43.864Z,14.31
2022-10-05T11:00:43.887Z,14.27
2022-10-05T11:01:44.033Z,14.25
2022-10-05T11:02:44.082Z,14.39
2022-10-05T11:03:43.984Z,14.41
2022-10-05T11:04:44.017Z,14.38
2022-10-05T11:05:47.961Z,14.33
2022-10-05T11:06:44.088Z,14.3
2022-10-05T11:07:44.119Z,14.29
2022-10-05T11:08:44.202Z,14.3
2022-10-05T11:09:44.198Z,14.34
2022-10-05T11:10:44.231Z,14.28
2022-10-05T11:11:44.273Z,14.31
2022-10-05T11:12:44.305Z,14.3
2022-10-05T11:13:44.340Z,14.31
2022-10-05T11:14:44.381Z,14.29
2022-10-05T11:15:44.495Z,14.23
2022-10-05T11:16:44.442Z,14.25
2022-10-05T11:17:44.481Z,14.29
2022-10-05T11:18:44.515Z,14.31
2022-10-05T11:19:59.641Z,14.34
2022-10-05T11:20:44.583Z,14.42
2022-10-05T11:21:44.610Z,14.48
2022-10-05T11:22:44.644Z,14.49
2022-10-05T11:23:44.674Z,14.52
2022-10-05T11:24:44.700Z,14.55
2022-10-05T11:25:44.737Z,14.52
2022-10-05T11:26:44.773Z,14.46
2022-10-05T11:27:44.807Z,14.43
2022-10-05T11:28:44.824Z,14.45
2022-10-05T11:29:44.867Z,14.36
2022-10-05T11:30:47.523Z,14.42
2022-10-05T11:31:44.964Z,14.56
2022-10-05T11:32:44.968Z,14.55
2022-10-05T11:33:45.007Z,14.52
2022-10-05T11:34:45.034Z,14.51
2022-10-05T11:35:45.072Z,14.47
2022-10-05T11:36:45.102Z,14.52
2022-10-05T11:37:45.128Z,14.5
2022-10-05T11:38:45.164Z,14.47
2022-10-05T11:39:45.196Z,14.5
2022-10-05T11:40:45.233Z,14.55
2022-10-05T11:41:45.623Z,14.61
2022-10-05T11:42:45.305Z,14.65
2022-10-05T11:43:45.346Z,14.62
2022-10-05T11:44:45.386Z,14.59
2022-10-05T11:45:45.421Z,14.64
2022-10-05T11:46:45.538Z,14.64
2022-10-05T11:47:45.479Z,14.67
2022-10-05T11:48:45.515Z,14.64
2022-10-05T11:49:45.553Z,14.72
2022-10-05T11:50:45.582Z,14.75
2022-10-05T11:51:45.869Z,14.82
2022-10-05T11:52:45.653Z,14.9
2022-10-05T11:53:45.685Z,14.94
2022-10-05T11:55:05.781Z,15.01
2022-10-05T11:55:45.748Z,15.02
2022-10-05T11:56:48.450Z,15.04
2022-10-05T11:57:45.806Z,15.04
2022-10-05T11:58:45.841Z,15.01
2022-10-05T11:59:45.872Z,15.06
2022-10-05T12:00:45.904Z,15.06
2022-10-05T12:01:45.942Z,15.17
2022-10-05T12:02:46.036Z,15.19
2022-10-05T12:03:46.068Z,15.24
2022-10-05T12:04:46.049Z,15.26
2022-10-05T12:05:46.088Z,15.3
2022-10-05T12:06:46.540Z,15.28
2022-10-05T12:07:46.157Z,15.27
2022-10-05T12:08:46.197Z,15.29
2022-10-05T12:09:46.229Z,15.29
2022-10-05T12:10:46.266Z,15.07
2022-10-05T12:11:46.304Z,15.06
2022-10-05T12:12:46.336Z,15.07
2022-10-05T12:13:46.376Z,15.12
2022-10-05T12:14:46.407Z,15.24
2022-10-05T12:15:46.498Z,15.21
2022-10-05T12:16:46.482Z,15.21
2022-10-05T12:17:46.512Z,15.14
2022-10-05T12:18:46.542Z,15.11
2022-10-05T12:19:46.564Z,15.09
2022-10-05T12:20:46.595Z,15.11
2022-10-05T12:21:46.629Z,14.99
2022-10-05T12:22:46.653Z,14.98
2022-10-05T12:23:46.691Z,14.93
2022-10-05T12:24:46.721Z,14.96
2022-10-05T12:25:46.777Z,14.99
2022-10-05T12:26:46.787Z,15.11
2022-10-05T12:27:46.826Z,15.18
2022-10-05T12:28:46.863Z,15.11
2022-10-05T12:29:46.897Z,15.09
2022-10-05T12:30:46.930Z,15.08
2022-10-05T12:31:47.028Z,15.1
2022-10-05T12:32:47.015Z,15.16
2022-10-05T12:33:47.046Z,15.14
2022-10-05T12:34:47.090Z,15.04
2022-10-05T12:35:48.810Z,15.07
2022-10-05T12:37:03.577Z,15.11
2022-10-05T12:37:47.184Z,15.1
2022-10-05T12:38:47.224Z,15.11
2022-10-05T12:39:47.251Z,15.05
2022-10-05T12:40:47.280Z,15.04
2022-10-05T12:41:47.317Z,15.09
2022-10-05T12:42:47.352Z,15.11
2022-10-05T12:43:47.392Z,15.09
2022-10-05T12:44:47.424Z,15.16
2022-10-05T12:45:47.535Z,15.22
2022-10-05T12:46:47.488Z,15.16
2022-10-05T12:47:52.896Z,15.11
2022-10-05T12:48:47.556Z,15.03
2022-10-05T12:49:47.581Z,15.04
2022-10-05T12:50:47.621Z,15.03
2022-10-05T12:51:47.665Z,15.04
2022-10-05T12:52:47.712Z,15.03
2022-10-05T12:53:47.731Z,15
2022-10-05T12:54:47.765Z,15
2022-10-05T12:55:47.800Z,15.01
2022-10-05T12:56:47.838Z,15.11
2022-10-05T12:57:47.866Z,15.03
2022-10-05T12:58:47.902Z,14.92
2022-10-05T12:59:47.927Z,14.91
2022-10-05T13:00:47.982Z,14.9
2022-10-05T13:01:48.030Z,14.85
2022-10-05T13:02:48.038Z,14.85
2022-10-05T13:03:48.067Z,14.96
2022-10-05T13:04:48.103Z,14.9
2022-10-05T13:05:48.137Z,14.9
2022-10-05T13:06:48.172Z,14.87
2022-10-05T13:07:48.201Z,14.98